createdAt,value
2022-07-30T00:03:54.629Z,4.35
2022-07-30T00:08:53.435Z,5.40
2022-07-30T00:13:52.310Z,3.90
2022-07-30T00:18:51.572Z,3.67
2022-07-30T00:24:01.336Z,2.80
2022-07-30T00:29:00.900Z,3.13
2022-07-30T00:34:00.918Z,2.97
2022-07-30T00:39:01.124Z,2.70
2022-07-30T00:44:00.358Z,2.73
2022-07-30T00:49:00.207Z,3.42
2022-07-30T00:54:00.452Z,3.50
2022-07-30T00:58:59.217Z,3.47
2022-07-30T01:03:57.989Z,3.08
2022-07-30T01:08:56.913Z,3.15
2022-07-30T01:13:58.665Z,2.88
2022-07-30T01:19:17.383Z,3.17
2022-07-30T01:24:27.207Z,3.50
2022-07-30T01:29:29.742Z,4.10
2022-07-30T01:39:30.363Z,3.50
2022-07-30T01:44:30.839Z,3.40
2022-07-30T01:49:31.203Z,3.53
2022-07-30T01:54:32.909Z,4.10
2022-07-30T01:59:36.574Z,3.85
2022-07-30T02:04:35.682Z,4.65
2022-07-30T02:09:39.119Z,3.83
2022-07-30T02:14:49.081Z,3.85
2022-07-30T02:19:52.640Z,4.20
2022-07-30T02:24:53.561Z,4.38
2022-07-30T02:29:57.045Z,4.55
2022-07-30T02:35:01.493Z,4.82
2022-07-30T02:40:01.191Z,4.47
2022-07-30T02:45:02.465Z,5.15
2022-07-30T02:50:03.576Z,4.50
2022-07-30T02:55:04.212Z,5.50
2022-07-30T03:00:07.719Z,5.70
2022-07-30T03:05:09.085Z,4.50
2022-07-30T03:10:08.832Z,4.95
2022-07-30T03:15:11.241Z,5.67
2022-07-30T03:20:12.586Z,6.03
2022-07-30T03:25:17.942Z,14.60
2022-07-30T03:30:18.306Z,5.13
2022-07-30T03:35:20.407Z,5.15
2022-07-30T03:40:20.784Z,4.30
2022-07-30T03:45:22.129Z,5.05
2022-07-30T03:50:22.675Z,4.85
2022-07-30T03:55:23.743Z,6.32
2022-07-30T04:00:24.216Z,6.32
2022-07-30T04:05:24.866Z,7.25
2022-07-30T04:10:24.100Z,6.32
2022-07-30T04:16:05.024Z,5.97
2022-07-30T04:21:17.301Z,5.85
2022-07-30T04:26:18.992Z,5.82
2022-07-30T04:31:19.956Z,6.63
2022-07-30T04:36:19.409Z,7.22
2022-07-30T04:41:18.599Z,6.45
2022-07-30T04:46:48.203Z,6.60
2022-07-30T04:51:48.688Z,7.50
2022-07-30T04:56:53.460Z,6.55
2022-07-30T05:01:58.745Z,6.43
2022-07-30T05:06:59.377Z,6.97
2022-07-30T05:11:59.488Z,7.70
2022-07-30T05:17:00.136Z,8.18
2022-07-30T05:22:04.688Z,8.02
2022-07-30T05:27:05.561Z,7.53
2022-07-30T05:32:07.395Z,8.35
2022-07-30T05:37:09.818Z,8.23
2022-07-30T05:42:12.059Z,10.73
2022-07-30T05:47:15.977Z,8.98
2022-07-30T05:52:16.539Z,8.57
2022-07-30T05:57:15.847Z,8.80
2022-07-30T06:02:16.644Z,8.77
2022-07-30T06:07:34.922Z,9.55
2022-07-30T06:12:35.463Z,8.70
2022-07-30T06:17:41.230Z,8.45
2022-07-30T06:22:48.748Z,9.73
2022-07-30T06:27:57.977Z,9.13
2022-07-30T06:32:58.278Z,8.93
2022-07-30T06:38:06.329Z,8.53
2022-07-30T06:43:15.615Z,7.20
2022-07-30T06:48:23.648Z,9.40
2022-07-30T06:53:24.587Z,11.55
2022-07-30T06:58:43.738Z,7.13
2022-07-30T07:04:18.952Z,7.10
2022-07-30T07:09:18.248Z,7.28
2022-07-30T07:14:24.717Z,6.65
2022-07-30T07:20:00.389Z,6.53
2022-07-30T07:30:01.581Z,7.40
2022-07-30T07:35:07.425Z,7.03
2022-07-30T07:40:10.691Z,6.65
2022-07-30T07:45:15.325Z,6.78
2022-07-30T07:50:28.173Z,6.32
2022-07-30T07:55:33.764Z,7.30
2022-07-30T08:00:34.437Z,7.20
2022-07-30T08:06:00.770Z,6.53
2022-07-30T08:11:16.948Z,6.97
2022-07-30T08:16:34.435Z,5.80
2022-07-30T08:21:34.681Z,5.63
2022-07-30T08:26:34.701Z,7.47
2022-07-30T08:31:33.494Z,5.47
2022-07-30T08:36:32.578Z,5.60
2022-07-30T08:41:33.225Z,5.72
2022-07-30T08:46:33.362Z,5.00
2022-07-30T08:51:43.469Z,4.75
2022-07-30T08:57:11.044Z,5.35
2022-07-30T09:02:13.092Z,4.88
2022-07-30T09:07:27.354Z,6.70
2022-07-30T09:17:52.333Z,5.07
2022-07-30T09:22:53.657Z,4.50
2022-07-30T09:28:17.547Z,5.10
2022-07-30T09:33:41.249Z,5.47
2022-07-30T09:39:02.790Z,5.03
2022-07-30T09:44:27.032Z,5.55
2022-07-30T09:49:30.561Z,4.47
2022-07-30T09:54:51.225Z,4.60
2022-07-30T09:59:55.053Z,4.97
2022-07-30T10:04:54.152Z,4.95
2022-07-30T10:09:54.333Z,4.53
2022-07-30T10:14:56.335Z,4.78
2022-07-30T10:19:55.927Z,4.45
2022-07-30T10:25:33.309Z,4.57
2022-07-30T10:30:56.163Z,4.30
2022-07-30T10:35:55.162Z,3.80
2022-07-30T10:41:01.738Z,4.28
2022-07-30T10:46:19.915Z,4.05
2022-07-30T10:51:25.596Z,4.05
2022-07-30T10:56:33.450Z,3.80
2022-07-30T11:02:11.017Z,7.70
2022-07-30T11:07:31.727Z,4.13
2022-07-30T11:13:00.335Z,4.20
2022-07-30T11:18:13.139Z,3.47
2022-07-30T11:23:42.992Z,3.45
2022-07-30T11:28:44.827Z,3.45
2022-07-30T11:33:45.010Z,3.85
2022-07-30T11:38:55.683Z,3.70
2022-07-30T11:44:30.083Z,3.67
2022-07-30T11:49:36.611Z,3.92
2022-07-30T11:54:35.361Z,3.45
2022-07-30T11:59:53.576Z,3.55
2022-07-30T12:04:55.599Z,3.83
2022-07-30T12:09:54.386Z,3.60
2022-07-30T12:14:57.909Z,3.75
2022-07-30T12:20:00.411Z,3.50
2022-07-30T12:25:07.270Z,2.97
2022-07-30T12:30:09.073Z,2.80
2022-07-30T12:35:10.360Z,3.10
2022-07-30T12:40:15.003Z,2.90
2022-07-30T12:45:27.579Z,3.35
2022-07-30T12:50:28.371Z,3.30
2022-07-30T12:55:32.402Z,3.15
2022-07-30T13:00:36.211Z,3.30
2022-07-30T13:05:49.934Z,3.17
2022-07-30T13:10:59.903Z,3.03
2022-07-30T13:16:00.851Z,3.10
2022-07-30T13:21:02.128Z,3.10
2022-07-30T13:26:00.956Z,3.40
2022-07-30T13:30:59.848Z,3.10
2022-07-30T13:35:59.305Z,2.95
2022-07-30T13:41:02.734Z,2.65
2022-07-30T13:46:03.072Z,2.92
2022-07-30T13:51:05.169Z,3.63
2022-07-30T13:56:05.775Z,3.30
2022-07-30T14:01:17.247Z,2.80
2022-07-30T14:06:16.889Z,2.67
2022-07-30T14:11:17.974Z,3.28
2022-07-30T14:16:42.392Z,2.53
2022-07-30T14:21:35.822Z,3.17
2022-07-30T14:26:36.711Z,3.10
2022-07-30T14:31:35.951Z,2.65
2022-07-30T14:36:34.844Z,3.17
2022-07-30T14:41:35.163Z,3.30
2022-07-30T14:46:34.372Z,3.05
2022-07-30T14:51:34.809Z,3.10
2022-07-30T14:56:35.139Z,2.95
2022-07-30T15:01:34.029Z,2.80
2022-07-30T15:06:32.850Z,3.35
2022-07-30T15:11:45.023Z,3.05
2022-07-30T15:16:51.912Z,3.30
2022-07-30T15:21:50.668Z,3.30
2022-07-30T15:26:49.556Z,2.88
2022-07-30T15:31:48.334Z,3.65
2022-07-30T15:36:48.616Z,3.78
2022-07-30T15:41:47.372Z,3.20
2022-07-30T15:46:46.137Z,3.90
2022-07-30T15:51:48.744Z,4.15
2022-07-30T15:56:49.021Z,3.95
2022-07-30T16:01:47.870Z,4.43
2022-07-30T16:06:46.724Z,4.20
2022-07-30T16:11:45.583Z,4.22
2022-07-30T16:16:47.290Z,4.40
2022-07-30T16:21:46.054Z,4.00
2022-07-30T16:26:44.963Z,4.95
2022-07-30T16:31:43.989Z,4.90
2022-07-30T16:41:43.092Z,4.75
2022-07-30T16:46:42.061Z,4.35
2022-07-30T16:51:40.990Z,5.13
2022-07-30T16:56:41.188Z,4.80
2022-07-30T17:01:40.068Z,4.45
2022-07-30T17:06:40.126Z,4.28
2022-07-30T17:11:46.455Z,4.53
2022-07-30T17:16:46.809Z,4.68
2022-07-30T17:21:45.590Z,4.40
2022-07-30T17:26:46.837Z,4.40
2022-07-30T17:31:48.402Z,4.47
2022-07-30T17:36:52.535Z,4.63
2022-07-30T17:41:58.181Z,4.93
2022-07-30T17:47:01.784Z,4.22
2022-07-30T17:52:02.108Z,4.68
2022-07-30T17:57:02.653Z,3.77
2022-07-30T18:02:01.812Z,4.40
2022-07-30T18:07:00.872Z,3.90
2022-07-30T18:11:59.991Z,4.50
2022-07-30T18:17:02.907Z,4.47
2022-07-30T18:22:02.167Z,4.32
2022-07-30T18:27:03.166Z,4.75
2022-07-30T18:32:04.134Z,4.30
2022-07-30T18:37:03.435Z,4.30
2022-07-30T18:42:03.725Z,3.92
2022-07-30T18:47:04.534Z,4.10
2022-07-30T18:57:02.420Z,4.85
2022-07-30T19:02:01.665Z,4.32
2022-07-30T19:07:02.224Z,4.00
2022-07-30T19:12:01.297Z,4.60
2022-07-30T19:17:00.220Z,4.13
2022-07-30T19:21:59.501Z,4.78
2022-07-30T19:26:59.756Z,4.55
2022-07-30T19:31:58.571Z,4.40
2022-07-30T19:36:57.310Z,4.18
2022-07-30T19:41:56.109Z,4.38
2022-07-30T19:46:57.737Z,5.03
2022-07-30T19:52:10.022Z,4.00
2022-07-30T19:57:17.804Z,4.82
2022-07-30T20:02:22.549Z,6.45
2022-07-30T20:07:21.527Z,7.78
2022-07-30T20:12:20.459Z,4.53
2022-07-30T20:17:24.795Z,4.68
2022-07-30T20:22:26.408Z,3.58
2022-07-30T20:27:37.407Z,4.00
2022-07-30T20:32:46.443Z,3.78
2022-07-30T20:37:54.657Z,5.03
2022-07-30T20:42:54.831Z,7.20
2022-07-30T20:47:56.837Z,8.20
2022-07-30T20:52:56.561Z,9.07
2022-07-30T20:58:09.948Z,7.95
2022-07-30T21:03:16.239Z,6.05
2022-07-30T21:08:15.817Z,4.10
2022-07-30T21:13:16.086Z,3.38
2022-07-30T21:18:16.585Z,2.85
2022-07-30T21:23:20.747Z,3.28
2022-07-30T21:28:27.652Z,3.40
2022-07-30T21:33:31.278Z,3.63
2022-07-30T21:38:31.976Z,2.97
2022-07-30T21:43:33.628Z,2.75
2022-07-30T21:48:33.905Z,3.30
2022-07-30T21:53:44.891Z,3.42
2022-07-30T21:58:45.986Z,3.03
2022-07-30T22:04:04.502Z,3.10
2022-07-30T22:09:19.480Z,3.15
2022-07-30T22:14:27.873Z,2.60
2022-07-30T22:19:28.367Z,3.10
2022-07-30T22:24:29.349Z,2.97
2022-07-30T22:29:34.024Z,3.20
2022-07-30T22:34:34.822Z,2.67
2022-07-30T22:39:51.726Z,2.97
2022-07-30T22:44:52.692Z,2.92
2022-07-30T22:49:56.057Z,2.90
2022-07-30T22:54:55.557Z,3.00
2022-07-30T22:59:59.927Z,2.90
2022-07-30T23:05:01.026Z,2.80
2022-07-30T23:10:02.190Z,3.05
2022-07-30T23:15:01.066Z,2.45
2022-07-30T23:20:01.261Z,3.20
2022-07-30T23:25:00.006Z,3.03
2022-07-30T23:29:58.751Z,2.90
2022-07-30T23:34:57.584Z,3.42
2022-07-30T23:39:59.432Z,2.90
2022-07-30T23:44:58.236Z,3.25
2022-07-30T23:49:57.159Z,3.30
2022-07-30T23:54:57.246Z,2.90
2022-07-30T23:59:56.138Z,3.15
